createdAt,value
2019-04-04T00:02:32.944Z,66.6
2019-04-04T00:07:33.156Z,67.5
2019-04-04T00:12:33.198Z,68.5
2019-04-04T00:17:33.119Z,67.1
2019-04-04T00:22:35.845Z,68.1
2019-04-04T00:27:33.068Z,67.1
2019-04-04T00:32:32.979Z,68
2019-04-04T00:37:36.517Z,69.8
2019-04-04T00:42:33.196Z,68.8
2019-04-04T00:47:33.196Z,69
2019-04-04T00:52:32.967Z,68.6
2019-04-04T00:57:33.189Z,69
2019-04-04T01:02:33.067Z,69.9
2019-04-04T01:07:36.360Z,69.8
2019-04-04T01:12:33.184Z,69
2019-04-04T01:17:35.867Z,71.4
2019-04-04T01:22:33.135Z,69.8
2019-04-04T01:27:32.993Z,70.6
2019-04-04T01:32:33.218Z,69.4
2019-04-04T01:37:33.115Z,70.2
2019-04-04T01:42:33.194Z,69.9
2019-04-04T01:47:33.219Z,70.1
2019-04-04T01:52:33.004Z,69.8
2019-04-04T01:57:33.188Z,70.9
2019-04-04T02:02:32.982Z,71.3
2019-04-04T02:07:33.146Z,70.6
2019-04-04T02:12:33.170Z,71.7
2019-04-04T02:17:33.224Z,71
2019-04-04T02:22:33.261Z,72.4
2019-04-04T02:27:33.002Z,71.6
2019-04-04T02:32:33.025Z,71.3
2019-04-04T02:37:33.148Z,70.7
2019-04-04T02:42:33.002Z,72.1
2019-04-04T02:47:33.015Z,72.4
2019-04-04T02:52:33.270Z,71.9
2019-04-04T02:57:33.051Z,71.8
2019-04-04T03:02:37.056Z,71.8
2019-04-04T03:07:33.032Z,71.1
2019-04-04T03:12:33.030Z,71.1
2019-04-04T03:17:33.239Z,71
2019-04-04T03:22:33.002Z,71.7
2019-04-04T03:27:33.023Z,71.7
2019-04-04T03:32:33.204Z,71.6
2019-04-04T03:37:33.046Z,72.1
2019-04-04T03:42:33.295Z,71.9
2019-04-04T03:47:33.196Z,71.6
2019-04-04T03:52:33.237Z,71.8
2019-04-04T03:57:33.019Z,72.9
2019-04-04T04:02:34.239Z,73.2
2019-04-04T04:07:33.206Z,72.3
2019-04-04T04:12:33.293Z,73.7
2019-04-04T04:17:36.682Z,72.7
2019-04-04T04:22:33.246Z,73
2019-04-04T04:27:33.253Z,72.7
2019-04-04T04:32:37.653Z,72.7
2019-04-04T04:37:33.232Z,73.3
2019-04-04T04:42:33.324Z,72.9
2019-04-04T04:47:33.214Z,73.4
2019-04-04T04:52:33.232Z,73.7
2019-04-04T04:57:38.161Z,74.8
2019-04-04T05:02:33.334Z,74.6
2019-04-04T05:07:33.055Z,73.2
2019-04-04T05:12:33.102Z,75.1
2019-04-04T05:17:33.110Z,74.4
2019-04-04T05:22:33.349Z,74.5
2019-04-04T05:27:33.311Z,73.5
2019-04-04T05:32:33.108Z,73.3
2019-04-04T05:37:33.193Z,74.1
2019-04-04T05:42:33.892Z,73.5
2019-04-04T05:47:33.317Z,74.8
2019-04-04T05:52:33.441Z,73.6
2019-04-04T05:57:33.231Z,73.7
2019-04-04T06:02:33.151Z,73.1
2019-04-04T06:07:37.082Z,73.2
2019-04-04T06:12:33.242Z,72
2019-04-04T06:17:33.123Z,71.4
2019-04-04T06:22:33.122Z,69.2
2019-04-04T06:27:33.124Z,69.4
2019-04-04T06:32:33.310Z,67.6
2019-04-04T06:37:34.655Z,65.7
2019-04-04T06:42:37.301Z,62.8
2019-04-04T06:47:33.120Z,58.5
2019-04-04T06:52:33.123Z,59.9
2019-04-04T06:57:37.454Z,51.7
2019-04-04T07:02:33.139Z,49.9
2019-04-04T07:07:33.260Z,48.6
2019-04-04T07:12:33.375Z,47.7
2019-04-04T07:17:33.304Z,45.8
2019-04-04T07:22:33.322Z,47.4
2019-04-04T07:27:33.145Z,43.6
2019-04-04T07:32:33.296Z,42.4
2019-04-04T07:37:33.327Z,42.6
2019-04-04T07:42:33.380Z,43.2
2019-04-04T07:47:33.424Z,40.4
2019-04-04T07:52:33.955Z,42.2
2019-04-04T07:57:33.187Z,39.5
2019-04-04T08:02:33.290Z,39.5
2019-04-04T08:07:33.176Z,39.4
2019-04-04T08:12:33.353Z,38.5
2019-04-04T08:17:33.148Z,37.7
2019-04-04T08:22:33.326Z,37.9
2019-04-04T08:27:33.333Z,37.7
2019-04-04T08:32:33.189Z,37.5
2019-04-04T08:37:33.331Z,36.4
2019-04-04T08:42:33.191Z,35
2019-04-04T08:47:33.210Z,35.8
2019-04-04T08:52:33.207Z,35.6
2019-04-04T08:57:33.266Z,37.5
2019-04-04T09:02:33.211Z,35.7
2019-04-04T09:07:33.436Z,36.1
2019-04-04T09:12:33.357Z,36.1
2019-04-04T09:17:33.410Z,36.9
2019-04-04T09:22:33.199Z,36.6
2019-04-04T09:27:33.214Z,38
2019-04-04T09:32:33.394Z,38.5
2019-04-04T09:37:33.442Z,38.7
2019-04-04T09:42:33.367Z,38.2
2019-04-04T09:47:33.398Z,38.1
2019-04-04T09:52:33.228Z,37.5
2019-04-04T09:57:33.268Z,37.9
2019-04-04T10:02:33.230Z,38
2019-04-04T10:07:33.404Z,37.8
2019-04-04T10:12:33.245Z,38.5
2019-04-04T10:17:33.482Z,38.4
2019-04-04T10:22:33.429Z,37.3
2019-04-04T10:27:33.264Z,36.3
2019-04-04T10:32:33.276Z,38.7
2019-04-04T10:37:33.541Z,37.4
2019-04-04T10:42:33.461Z,35.6
2019-04-04T10:47:36.766Z,36.6
2019-04-04T10:52:33.424Z,36.1
2019-04-04T10:57:33.489Z,37.3
2019-04-04T11:02:33.515Z,36.2
2019-04-04T11:07:33.279Z,36.5
2019-04-04T11:12:34.678Z,36.2
2019-04-04T11:17:33.274Z,36.4
2019-04-04T11:22:33.303Z,35.1
2019-04-04T11:27:33.328Z,34.7
2019-04-04T11:32:33.317Z,34.6
2019-04-04T11:37:33.283Z,33.9
2019-04-04T11:42:33.315Z,33.9
2019-04-04T11:47:33.270Z,34.4
2019-04-04T11:52:33.277Z,33.3
2019-04-04T11:57:33.315Z,33.9
2019-04-04T12:02:33.319Z,35.8
2019-04-04T12:07:33.334Z,33.5
2019-04-04T12:12:33.428Z,34.7
2019-04-04T12:17:33.303Z,33.2
2019-04-04T12:22:33.300Z,33.4
2019-04-04T12:27:33.444Z,33.2
2019-04-04T12:32:33.327Z,33.5
2019-04-04T12:37:33.322Z,34
2019-04-04T12:42:33.328Z,32.6
2019-04-04T12:47:33.409Z,33.8
2019-04-04T12:52:33.340Z,34.5
2019-04-04T12:57:33.316Z,35.2
2019-04-04T13:02:33.335Z,34.7
2019-04-04T13:07:33.331Z,34.4
2019-04-04T13:12:33.334Z,35.9
2019-04-04T13:17:33.337Z,35.9
2019-04-04T13:22:33.340Z,36.8
2019-04-04T13:27:33.573Z,36.2
2019-04-04T13:32:33.352Z,35.8
2019-04-04T13:37:33.352Z,36.2
2019-04-04T13:42:33.349Z,36.6
2019-04-04T13:47:33.365Z,36.4
2019-04-04T13:52:33.373Z,36.8
2019-04-04T13:57:33.359Z,36.7
2019-04-04T14:02:33.347Z,36
2019-04-04T14:07:33.355Z,36.3
2019-04-04T14:12:33.467Z,35.8
2019-04-04T14:17:33.365Z,35.8
2019-04-04T14:22:33.341Z,36
2019-04-04T14:27:33.379Z,35.5
2019-04-04T14:32:33.493Z,34.9
2019-04-04T14:37:33.402Z,35.5
2019-04-04T14:42:33.383Z,35.4
2019-04-04T14:47:33.495Z,35.7
2019-04-04T14:52:33.387Z,35.7
2019-04-04T14:57:33.568Z,36.8
2019-04-04T15:02:33.343Z,35.7
2019-04-04T15:07:33.417Z,36.1
2019-04-04T15:12:33.422Z,36.6
2019-04-04T15:17:33.437Z,36.7
2019-04-04T15:22:33.411Z,37.7
2019-04-04T15:27:33.421Z,37.1
2019-04-04T15:32:33.414Z,37.2
2019-04-04T15:37:33.414Z,37.8
2019-04-04T15:42:33.561Z,37.1
2019-04-04T15:47:33.412Z,36.6
2019-04-04T15:52:33.431Z,37.7
2019-04-04T15:57:33.395Z,37.6
2019-04-04T16:02:33.528Z,37.9
2019-04-04T16:07:33.422Z,37
2019-04-04T16:12:33.623Z,39
2019-04-04T16:17:33.595Z,38.3
2019-04-04T16:22:33.643Z,38.7
2019-04-04T16:27:33.433Z,39.2
2019-04-04T16:32:33.617Z,39.2
2019-04-04T16:37:33.577Z,38.8
2019-04-04T16:42:33.566Z,39.6
2019-04-04T16:47:33.453Z,39
2019-04-04T16:52:33.449Z,39.8
2019-04-04T16:57:33.581Z,39.6
2019-04-04T17:02:33.475Z,40.6
2019-04-04T17:07:33.636Z,40.5
2019-04-04T17:12:33.590Z,40.5
2019-04-04T17:17:33.451Z,40.6
2019-04-04T17:22:33.488Z,40.6
2019-04-04T17:27:33.587Z,40.6
2019-04-04T17:32:34.102Z,40.6
2019-04-04T17:37:33.507Z,40.2
2019-04-04T17:42:34.443Z,40.7
2019-04-04T17:47:33.981Z,41.1
2019-04-04T17:52:33.497Z,41.8
2019-04-04T17:57:34.057Z,41.6
2019-04-04T18:02:33.658Z,41.3
2019-04-04T18:07:33.497Z,40.8
2019-04-04T18:12:40.988Z,41.4
2019-04-04T18:17:33.610Z,41.9
2019-04-04T18:22:33.488Z,41
2019-04-04T18:27:33.512Z,42.4
2019-04-04T18:32:33.500Z,42.7
2019-04-04T18:37:33.513Z,41.8
2019-04-04T18:42:33.546Z,42.3
2019-04-04T18:47:33.495Z,43.6
2019-04-04T18:52:33.496Z,43.8
2019-04-04T18:57:33.708Z,42.7
2019-04-04T19:02:33.598Z,43.8
2019-04-04T19:07:39.952Z,43.7
2019-04-04T19:12:33.689Z,44.1
2019-04-04T19:17:33.631Z,48.2
2019-04-04T19:22:33.931Z,53.7
2019-04-04T19:27:33.641Z,54.4
2019-04-04T19:32:33.546Z,56.4
2019-04-04T19:37:33.735Z,57.3
2019-04-04T19:42:33.566Z,58
2019-04-04T19:47:33.715Z,58.6
2019-04-04T19:52:33.755Z,58.7
2019-04-04T19:57:33.572Z,59.8
2019-04-04T20:02:33.649Z,59.7
2019-04-04T20:07:33.753Z,60
2019-04-04T20:12:33.551Z,60.1
2019-04-04T20:17:33.580Z,60.8
2019-04-04T20:22:34.352Z,60.6
2019-04-04T20:27:33.548Z,61.3
2019-04-04T20:32:33.569Z,62.9
2019-04-04T20:37:33.555Z,63.1
2019-04-04T20:42:33.593Z,63.1
2019-04-04T20:47:34.200Z,63.1
2019-04-04T20:52:33.560Z,62.7
2019-04-04T20:57:33.563Z,63.2
2019-04-04T21:02:33.568Z,62.7
2019-04-04T21:07:33.725Z,64.4
2019-04-04T21:12:33.575Z,63.5
2019-04-04T21:17:33.606Z,64.1
2019-04-04T21:22:33.581Z,62.9
2019-04-04T21:27:33.581Z,63.2
2019-04-04T21:32:33.584Z,64.5
2019-04-04T21:37:33.832Z,63.9
2019-04-04T21:42:33.599Z,64.9
2019-04-04T21:47:33.599Z,64.2
2019-04-04T21:52:33.607Z,64.3
2019-04-04T21:57:33.563Z,64.3
2019-04-04T22:02:33.604Z,64.4
2019-04-04T22:07:33.642Z,65.3
2019-04-04T22:12:33.612Z,65.3
2019-04-04T22:17:33.628Z,65.7
2019-04-04T22:22:36.404Z,65.2
2019-04-04T22:27:33.585Z,65.6
2019-04-04T22:32:33.622Z,65.4
2019-04-04T22:37:33.779Z,66.5
2019-04-04T22:42:33.621Z,66.2
2019-04-04T22:47:33.630Z,66.5
2019-04-04T22:52:33.614Z,66.1
2019-04-04T22:57:33.623Z,67.1
2019-04-04T23:02:33.622Z,67.7
2019-04-04T23:07:33.630Z,66.9
2019-04-04T23:12:33.653Z,67.3
2019-04-04T23:17:33.701Z,66.6
2019-04-04T23:22:33.627Z,67.7
2019-04-04T23:27:33.632Z,67.1
2019-04-04T23:32:33.649Z,67.8
2019-04-04T23:37:33.639Z,68.1
2019-04-04T23:42:33.660Z,67.3
2019-04-04T23:47:43.694Z,66.8
2019-04-04T23:52:33.667Z,67.1
2019-04-04T23:57:33.865Z,67.3
